sensor_id;sensor_type;location;lat;lon;timestamp;pressure;altitude;pressure_sealevel;temperature;humidity
33554;BME280;19885;42.208;24.952;2022-12-01T00:00:10;100360.56;;;6.35;100.00
33554;BME280;19885;42.208;24.952;2022-12-01T00:02:36;100378.44;;;6.54;100.00
33554;BME280;19885;42.208;24.952;2022-12-01T00:05:02;100361.03;;;6.50;100.00
33554;BME280;19885;42.208;24.952;2022-12-01T00:07:27;100361.88;;;6.49;100.00
33554;BME280;19885;42.208;24.952;2022-12-01T00:09:53;100364.50;;;6.22;100.00
33554;BME280;19885;42.208;24.952;2022-12-01T00:12:37;100370.03;;;6.34;100.00
33554;BME280;19885;42.208;24.952;2022-12-01T00:15:09;100365.84;;;6.38;100.00
33554;BME280;19885;42.208;24.952;2022-12-01T00:17:36;100364.72;;;6.30;100.00
33554;BME280;19885;42.208;24.952;2022-12-01T00:20:03;100370.78;;;6.30;100.00
33554;BME280;19885;42.208;24.952;2022-12-01T00:22:28;100281.19;;;5.81;100.00
33554;BME280;19885;42.208;24.952;2022-12-01T00:24:54;100366.69;;;6.38;100.00
33554;BME280;19885;42.208;24.952;2022-12-01T00:27:22;100370.25;;;6.40;100.00
33554;BME280;19885;42.208;24.952;2022-12-01T00:29:47;100359.44;;;6.54;100.00
33554;BME280;19885;42.208;24.952;2022-12-01T00:32:13;100353.88;;;6.41;100.00
33554;BME280;19885;42.208;24.952;2022-12-01T00:34:39;100359.97;;;6.43;100.00
33554;BME280;19885;42.208;24.952;2022-12-01T00:37:04;100320.66;;;6.27;100.00
33554;BME280;19885;42.208;24.952;2022-12-01T00:39:30;100356.78;;;6.52;100.00
33554;BME280;19885;42.208;24.952;2022-12-01T00:41:56;100358.81;;;6.62;100.00
33554;BME280;19885;42.208;24.952;2022-12-01T00:44:21;100357.88;;;6.59;100.00
33554;BME280;19885;42.208;24.952;2022-12-01T00:46:49;100337.97;;;6.58;100.00
33554;BME280;19885;42.208;24.952;2022-12-01T00:49:15;100355.50;;;6.66;100.00
33554;BME280;19885;42.208;24.952;2022-12-01T00:51:41;100346.28;;;6.76;100.00
33554;BME280;19885;42.208;24.952;2022-12-01T00:54:11;100340.09;;;7.00;100.00
33554;BME280;19885;42.208;24.952;2022-12-01T00:56:36;100346.47;;;6.82;100.00
33554;BME280;19885;42.208;24.952;2022-12-01T00:59:02;100355.63;;;6.71;100.00
33554;BME280;19885;42.208;24.952;2022-12-01T01:01:27;100349.34;;;6.63;100.00
33554;BME280;19885;42.208;24.952;2022-12-01T01:03:53;100334.63;;;6.62;100.00
33554;BME280;19885;42.208;24.952;2022-12-01T01:06:20;100349.22;;;6.58;100.00
33554;BME280;19885;42.208;24.952;2022-12-01T01:08:46;100340.00;;;6.39;100.00
33554;BME280;19885;42.208;24.952;2022-12-01T01:11:11;100332.34;;;6.42;100.00
33554;BME280;19885;42.208;24.952;2022-12-01T01:13:37;100340.00;;;6.39;100.00
33554;BME280;19885;42.208;24.952;2022-12-01T01:16:10;100317.00;;;6.48;100.00
33554;BME280;19885;42.208;24.952;2022-12-01T01:18:37;100340.09;;;6.71;100.00
33554;BME280;19885;42.208;24.952;2022-12-01T01:21:05;100324.72;;;7.06;100.00
33554;BME280;19885;42.208;24.952;2022-12-01T01:23:31;100319.38;;;7.00;100.00
33554;BME280;19885;42.208;24.952;2022-12-01T01:26:05;100327.91;;;6.96;100.00
33554;BME280;19885;42.208;24.952;2022-12-01T01:28:32;100327.41;;;7.09;100.00
33554;BME280;19885;42.208;24.952;2022-12-01T01:30:57;100326.91;;;7.22;100.00
33554;BME280;19885;42.208;24.952;2022-12-01T01:33:23;100318.47;;;7.00;100.00
33554;BME280;19885;42.208;24.952;2022-12-01T01:35:49;100300.41;;;7.33;100.00
33554;BME280;19885;42.208;24.952;2022-12-01T01:38:14;100296.75;;;7.59;100.00
33554;BME280;19885;42.208;24.952;2022-12-01T01:40:44;100296.13;;;7.67;100.00
33554;BME280;19885;42.208;24.952;2022-12-01T01:46:02;100299.19;;;7.85;100.00
33554;BME280;19885;42.208;24.952;2022-12-01T01:48:28;100276.47;;;7.77;100.00
33554;BME280;19885;42.208;24.952;2022-12-01T01:50:54;100280.97;;;7.84;100.00
33554;BME280;19885;42.208;24.952;2022-12-01T01:53:20;100303.91;;;8.02;100.00
33554;BME280;19885;42.208;24.952;2022-12-01T01:55:48;100305.63;;;8.03;99.86
33554;BME280;19885;42.208;24.952;2022-12-01T01:58:14;100308.25;;;8.04;99.41
33554;BME280;19885;42.208;24.952;2022-12-01T02:00:41;100308.34;;;8.07;99.45
33554;BME280;19885;42.208;24.952;2022-12-01T02:03:09;100282.09;;;7.95;99.53
33554;BME280;19885;42.208;24.952;2022-12-01T02:05:37;100210.22;;;7.54;99.60
33554;BME280;19885;42.208;24.952;2022-12-01T02:08:04;100299.78;;;8.11;99.00
33554;BME280;19885;42.208;24.952;2022-12-01T02:13:50;100290.09;;;8.04;98.74
33554;BME280;19885;42.208;24.952;2022-12-01T02:21:41;100285.63;;;7.97;98.47
33554;BME280;19885;42.208;24.952;2022-12-01T02:27:08;100298.09;;;8.13;98.25
33554;BME280;19885;42.208;24.952;2022-12-01T02:32:57;100285.28;;;8.19;98.08
33554;BME280;19885;42.208;24.952;2022-12-01T02:43:32;100279.19;;;8.17;97.97
33554;BME280;19885;42.208;24.952;2022-12-01T02:46:09;100280.78;;;8.12;98.61
33554;BME280;19885;42.208;24.952;2022-12-01T02:48:42;100267.03;;;8.16;97.78
33554;BME280;19885;42.208;24.952;2022-12-01T02:51:25;100275.78;;;8.20;97.78
33554;BME280;19885;42.208;24.952;2022-12-01T02:53:55;100271.34;;;8.16;97.51
33554;BME280;19885;42.208;24.952;2022-12-01T02:56:23;100269.31;;;8.04;98.42
33554;BME280;19885;42.208;24.952;2022-12-01T02:58:49;100267.28;;;7.91;98.12
33554;BME280;19885;42.208;24.952;2022-12-01T03:04:31;100207.78;;;7.61;99.04
33554;BME280;19885;42.208;24.952;2022-12-01T03:10:30;100277.41;;;7.45;99.57
33554;BME280;19885;42.208;24.952;2022-12-01T03:13:26;100272.13;;;7.76;99.66
33554;BME280;19885;42.208;24.952;2022-12-01T03:16:11;100267.47;;;7.97;99.37
33554;BME280;19885;42.208;24.952;2022-12-01T03:18:48;100263.31;;;8.05;99.25
33554;BME280;19885;42.208;24.952;2022-12-01T03:24:09;100193.31;;;7.71;98.63
33554;BME280;19885;42.208;24.952;2022-12-01T03:26:36;100268.81;;;8.19;98.27
33554;BME280;19885;42.208;24.952;2022-12-01T03:29:13;100266.25;;;8.20;98.53
33554;BME280;19885;42.208;24.952;2022-12-01T03:32:04;100274.09;;;8.23;97.75
33554;BME280;19885;42.208;24.952;2022-12-01T03:34:36;100272.28;;;8.19;97.78
33554;BME280;19885;42.208;24.952;2022-12-01T03:37:16;100273.19;;;8.21;97.45
33554;BME280;19885;42.208;24.952;2022-12-01T03:39:46;100268.78;;;8.17;97.32
33554;BME280;19885;42.208;24.952;2022-12-01T03:42:24;100258.13;;;8.05;97.37
33554;BME280;19885;42.208;24.952;2022-12-01T03:44:57;100268.59;;;8.08;98.11
33554;BME280;19885;42.208;24.952;2022-12-01T03:47:29;100273.00;;;8.14;97.93
33554;BME280;19885;42.208;24.952;2022-12-01T03:49:57;100268.63;;;8.11;97.53
33554;BME280;19885;42.208;24.952;2022-12-01T03:57:33;100265.78;;;7.99;98.84
33554;BME280;19885;42.208;24.952;2022-12-01T04:00:00;100266.19;;;7.81;99.49
33554;BME280;19885;42.208;24.952;2022-12-01T04:02:27;100267.88;;;7.79;100.00
33554;BME280;19885;42.208;24.952;2022-12-01T04:04:53;100251.28;;;7.37;100.00
33554;BME280;19885;42.208;24.952;2022-12-01T04:07:20;100265.34;;;7.47;100.00
33554;BME280;19885;42.208;24.952;2022-12-01T04:09:46;100266.25;;;7.49;100.00
33554;BME280;19885;42.208;24.952;2022-12-01T04:12:12;100254.00;;;7.43;100.00
33554;BME280;19885;42.208;24.952;2022-12-01T04:15:09;100270.09;;;7.64;100.00
33554;BME280;19885;42.208;24.952;2022-12-01T04:17:37;100255.91;;;7.50;100.00
33554;BME280;19885;42.208;24.952;2022-12-01T04:20:04;100241.31;;;7.19;100.00
33554;BME280;19885;42.208;24.952;2022-12-01T04:22:31;100249.91;;;7.18;100.00
33554;BME280;19885;42.208;24.952;2022-12-01T04:24:57;100267.50;;;7.30;100.00
33554;BME280;19885;42.208;24.952;2022-12-01T04:27:23;100264.78;;;7.26;100.00
33554;BME280;19885;42.208;24.952;2022-12-01T04:29:48;100281.53;;;7.05;100.00
33554;BME280;19885;42.208;24.952;2022-12-01T04:32:14;100264.19;;;7.03;100.00
33554;BME280;19885;42.208;24.952;2022-12-01T04:34:40;100276.25;;;7.34;100.00
33554;BME280;19885;42.208;24.952;2022-12-01T04:37:06;100288.81;;;7.53;100.00
33554;BME280;19885;42.208;24.952;2022-12-01T04:39:32;100282.97;;;7.60;100.00
33554;BME280;19885;42.208;24.952;2022-12-01T04:41:58;100269.69;;;7.48;100.00
33554;BME280;19885;42.208;24.952;2022-12-01T04:44:24;100286.38;;;7.59;100.00
33554;BME280;19885;42.208;24.952;2022-12-01T04:46:50;100294.22;;;7.60;100.00
33554;BME280;19885;42.208;24.952;2022-12-01T04:49:18;100291.06;;;7.39;100.00
33554;BME280;19885;42.208;24.952;2022-12-01T04:51:43;100284.13;;;7.72;100.00
33554;BME280;19885;42.208;24.952;2022-12-01T04:54:09;100271.50;;;7.86;100.00
33554;BME280;19885;42.208;24.952;2022-12-01T04:56:34;100290.94;;;8.03;100.00
33554;BME280;19885;42.208;24.952;2022-12-01T04:59:00;100284.16;;;8.08;100.00
33554;BME280;19885;42.208;24.952;2022-12-01T05:01:26;100282.59;;;8.16;99.88
33554;BME280;19885;42.208;24.952;2022-12-01T05:03:51;100277.41;;;8.16;99.79
33554;BME280;19885;42.208;24.952;2022-12-01T05:06:25;100218.75;;;7.85;99.46
33554;BME280;19885;42.208;24.952;2022-12-01T05:08:54;100296.59;;;8.23;99.47
33554;BME280;19885;42.208;24.952;2022-12-01T05:11:21;100272.97;;;8.11;99.45
33554;BME280;19885;42.208;24.952;2022-12-01T05:13:48;100288.38;;;8.05;99.92
33554;BME280;19885;42.208;24.952;2022-12-01T05:16:19;100282.84;;;7.89;100.00
33554;BME280;19885;42.208;24.952;2022-12-01T05:18:53;100285.81;;;7.70;100.00
33554;BME280;19885;42.208;24.952;2022-12-01T05:21:39;100290.19;;;7.73;100.00
33554;BME280;19885;42.208;24.952;2022-12-01T05:24:06;100276.94;;;7.61;100.00
33554;BME280;19885;42.208;24.952;2022-12-01T05:26:32;100288.47;;;7.72;100.00
33554;BME280;19885;42.208;24.952;2022-12-01T05:28:58;100292.75;;;7.37;100.00
33554;BME280;19885;42.208;24.952;2022-12-01T05:31:23;100289.09;;;7.29;100.00
33554;BME280;19885;42.208;24.952;2022-12-01T05:33:49;100276.84;;;7.25;100.00
33554;BME280;19885;42.208;24.952;2022-12-01T05:36:14;100293.56;;;7.36;100.00
33554;BME280;19885;42.208;24.952;2022-12-01T05:38:40;100304.66;;;7.31;100.00
33554;BME280;19885;42.208;24.952;2022-12-01T05:41:05;100297.09;;;7.07;100.00
33554;BME280;19885;42.208;24.952;2022-12-01T05:43:31;100293.47;;;7.00;100.00
33554;BME280;19885;42.208;24.952;2022-12-01T05:45:57;100295.69;;;6.88;100.00
33554;BME280;19885;42.208;24.952;2022-12-01T05:48:22;100297.47;;;6.89;100.00
33554;BME280;19885;42.208;24.952;2022-12-01T05:50:48;100294.22;;;6.96;100.00
33554;BME280;19885;42.208;24.952;2022-12-01T05:53:14;100300.84;;;6.87;100.00
33554;BME280;19885;42.208;24.952;2022-12-01T05:55:40;100299.81;;;6.80;100.00
33554;BME280;19885;42.208;24.952;2022-12-01T05:58:06;100304.16;;;6.81;100.00
33554;BME280;19885;42.208;24.952;2022-12-01T06:00:31;100302.78;;;6.94;100.00
33554;BME280;19885;42.208;24.952;2022-12-01T06:02:57;100291.03;;;6.75;100.00
33554;BME280;19885;42.208;24.952;2022-12-01T06:05:22;100294.53;;;6.77;100.00
33554;BME280;19885;42.208;24.952;2022-12-01T06:07:48;100302.88;;;6.97;100.00
33554;BME280;19885;42.208;24.952;2022-12-01T06:10:14;100291.25;;;6.83;100.00
33554;BME280;19885;42.208;24.952;2022-12-01T06:12:39;100230.69;;;6.79;100.00
33554;BME280;19885;42.208;24.952;2022-12-01T06:15:06;100317.28;;;7.18;100.00
33554;BME280;19885;42.208;24.952;2022-12-01T06:17:32;100313.91;;;7.21;100.00
33554;BME280;19885;42.208;24.952;2022-12-01T06:19:58;100308.84;;;6.94;100.00
33554;BME280;19885;42.208;24.952;2022-12-01T06:22:24;100314.03;;;6.94;100.00
33554;BME280;19885;42.208;24.952;2022-12-01T06:24:49;100317.00;;;6.78;100.00
33554;BME280;19885;42.208;24.952;2022-12-01T06:27:15;100324.56;;;7.00;100.00
33554;BME280;19885;42.208;24.952;2022-12-01T06:29:41;100304.06;;;6.78;100.00
33554;BME280;19885;42.208;24.952;2022-12-01T06:32:07;100324.28;;;6.91;100.00
33554;BME280;19885;42.208;24.952;2022-12-01T06:34:32;100302.88;;;6.67;100.00
33554;BME280;19885;42.208;24.952;2022-12-01T06:36:58;100306.03;;;6.57;100.00
33554;BME280;19885;42.208;24.952;2022-12-01T06:39:24;100319.19;;;6.65;100.00
33554;BME280;19885;42.208;24.952;2022-12-01T06:41:49;100333.06;;;6.67;100.00
33554;BME280;19885;42.208;24.952;2022-12-01T06:44:15;100321.75;;;6.63;100.00
33554;BME280;19885;42.208;24.952;2022-12-01T06:46:40;100308.13;;;6.70;100.00
33554;BME280;19885;42.208;24.952;2022-12-01T06:49:12;100309.78;;;6.68;100.00
33554;BME280;19885;42.208;24.952;2022-12-01T06:51:38;100317.16;;;6.55;100.00
33554;BME280;19885;42.208;24.952;2022-12-01T06:54:04;100258.53;;;6.27;100.00
33554;BME280;19885;42.208;24.952;2022-12-01T06:56:30;100328.66;;;6.64;100.00
33554;BME280;19885;42.208;24.952;2022-12-01T06:58:55;100314.50;;;6.52;100.00
33554;BME280;19885;42.208;24.952;2022-12-01T07:01:21;100296.66;;;6.32;100.00
33554;BME280;19885;42.208;24.952;2022-12-01T07:03:50;100327.22;;;6.72;100.00
33554;BME280;19885;42.208;24.952;2022-12-01T07:06:16;100315.47;;;6.55;100.00
33554;BME280;19885;42.208;24.952;2022-12-01T07:08:42;100324.22;;;6.59;100.00
33554;BME280;19885;42.208;24.952;2022-12-01T07:11:11;100323.97;;;6.51;100.00
33554;BME280;19885;42.208;24.952;2022-12-01T07:13:37;100314.63;;;6.56;100.00
33554;BME280;19885;42.208;24.952;2022-12-01T07:16:04;100318.59;;;6.73;100.00
33554;BME280;19885;42.208;24.952;2022-12-01T07:56:12;100322.53;;;6.61;100.00
33554;BME280;19885;42.208;24.952;2022-12-01T07:58:38;100320.09;;;6.65;100.00
33554;BME280;19885;42.208;24.952;2022-12-01T08:01:12;100329.72;;;6.71;100.00
33554;BME280;19885;42.208;24.952;2022-12-01T08:03:38;100331.44;;;6.70;100.00
33554;BME280;19885;42.208;24.952;2022-12-01T08:06:04;100253.44;;;6.30;100.00
33554;BME280;19885;42.208;24.952;2022-12-01T08:08:32;100325.66;;;6.79;100.00
33554;BME280;19885;42.208;24.952;2022-12-01T08:11:04;100333.25;;;6.73;100.00
33554;BME280;19885;42.208;24.952;2022-12-01T08:13:30;100336.84;;;6.78;100.00
33554;BME280;19885;42.208;24.952;2022-12-01T08:15:56;100329.31;;;6.57;100.00
33554;BME280;19885;42.208;24.952;2022-12-01T08:18:23;100333.47;;;6.52;100.00
33554;BME280;19885;42.208;24.952;2022-12-01T08:20:55;100333.72;;;6.60;100.00
33554;BME280;19885;42.208;24.952;2022-12-01T08:23:24;100338.22;;;6.65;100.00
33554;BME280;19885;42.208;24.952;2022-12-01T08:25:50;100269.69;;;6.24;100.00
33554;BME280;19885;42.208;24.952;2022-12-01T08:28:19;100312.72;;;6.51;100.00
33554;BME280;19885;42.208;24.952;2022-12-01T08:30:46;100324.22;;;6.59;100.00
33554;BME280;19885;42.208;24.952;2022-12-01T08:33:11;100324.78;;;6.50;100.00
33554;BME280;19885;42.208;24.952;2022-12-01T08:35:37;100241.47;;;6.05;100.00
33554;BME280;19885;42.208;24.952;2022-12-01T08:38:03;100325.06;;;6.59;100.00
33554;BME280;19885;42.208;24.952;2022-12-01T08:40:29;100325.03;;;6.58;100.00
33554;BME280;19885;42.208;24.952;2022-12-01T08:42:54;100314.72;;;6.59;100.00
33554;BME280;19885;42.208;24.952;2022-12-01T08:45:20;100319.03;;;6.59;100.00
33554;BME280;19885;42.208;24.952;2022-12-01T08:47:47;100310.09;;;6.49;100.00
33554;BME280;19885;42.208;24.952;2022-12-01T08:50:13;100295.06;;;6.36;100.00
33554;BME280;19885;42.208;24.952;2022-12-01T08:52:39;100293.19;;;6.32;100.00
33554;BME280;19885;42.208;24.952;2022-12-01T08:55:05;100315.31;;;6.51;100.00
33554;BME280;19885;42.208;24.952;2022-12-01T08:57:31;100211.22;;;6.03;100.00
33554;BME280;19885;42.208;24.952;2022-12-01T08:59:56;100299.28;;;6.34;100.00
33554;BME280;19885;42.208;24.952;2022-12-01T09:02:22;100305.69;;;6.45;100.00
33554;BME280;19885;42.208;24.952;2022-12-01T09:04:48;100304.88;;;6.47;100.00
33554;BME280;19885;42.208;24.952;2022-12-01T09:07:17;100309.69;;;6.35;100.00
33554;BME280;19885;42.208;24.952;2022-12-01T09:09:44;100275.16;;;6.07;100.00
33554;BME280;19885;42.208;24.952;2022-12-01T09:12:09;100279.69;;;6.14;100.00
33554;BME280;19885;42.208;24.952;2022-12-01T09:14:40;100293.50;;;6.14;100.00
33554;BME280;19885;42.208;24.952;2022-12-01T09:17:07;100298.78;;;6.17;100.00
33554;BME280;19885;42.208;24.952;2022-12-01T09:19:32;100291.16;;;6.22;100.00
33554;BME280;19885;42.208;24.952;2022-12-01T09:21:58;100269.91;;;6.04;100.00
33554;BME280;19885;42.208;24.952;2022-12-01T09:24:24;100302.22;;;6.18;100.00
33554;BME280;19885;42.208;24.952;2022-12-01T09:26:54;100297.41;;;6.28;100.00
33554;BME280;19885;42.208;24.952;2022-12-01T09:29:20;100275.25;;;6.10;100.00
33554;BME280;19885;42.208;24.952;2022-12-01T09:31:45;100275.91;;;6.31;100.00
33554;BME280;19885;42.208;24.952;2022-12-01T09:34:17;100271.63;;;6.31;100.00
33554;BME280;19885;42.208;24.952;2022-12-01T09:36:44;100285.13;;;6.51;100.00
33554;BME280;19885;42.208;24.952;2022-12-01T09:39:15;100275.72;;;6.53;100.00
33554;BME280;19885;42.208;24.952;2022-12-01T09:41:48;100192.03;;;5.95;100.00
33554;BME280;19885;42.208;24.952;2022-12-01T09:44:29;100274.41;;;6.39;100.00
33554;BME280;19885;42.208;24.952;2022-12-01T09:46:59;100256.13;;;6.33;100.00
33554;BME280;19885;42.208;24.952;2022-12-01T09:52:15;100267.44;;;6.36;100.00
33554;BME280;19885;42.208;24.952;2022-12-01T09:54:43;100262.47;;;6.42;100.00
33554;BME280;19885;42.208;24.952;2022-12-01T09:57:33;100244.66;;;6.25;100.00
33554;BME280;19885;42.208;24.952;2022-12-01T10:00:17;100267.84;;;6.50;100.00
33554;BME280;19885;42.208;24.952;2022-12-01T10:02:51;100250.47;;;6.46;100.00
33554;BME280;19885;42.208;24.952;2022-12-01T10:05:22;100276.47;;;6.49;100.00
33554;BME280;19885;42.208;24.952;2022-12-01T10:07:57;100264.34;;;6.48;100.00
33554;BME280;19885;42.208;24.952;2022-12-01T10:10:29;100263.66;;;6.54;100.00
33554;BME280;19885;42.208;24.952;2022-12-01T10:12:55;100246.00;;;6.40;100.00
33554;BME280;19885;42.208;24.952;2022-12-01T10:15:42;100251.47;;;6.50;100.00
33554;BME280;19885;42.208;24.952;2022-12-01T10:21:02;100257.06;;;6.65;100.00
33554;BME280;19885;42.208;24.952;2022-12-01T10:23:36;100176.84;;;6.07;100.00
33554;BME280;19885;42.208;24.952;2022-12-01T10:26:18;100172.84;;;6.18;100.00
33554;BME280;19885;42.208;24.952;2022-12-01T10:31:56;100255.56;;;6.73;100.00
33554;BME280;19885;42.208;24.952;2022-12-01T10:34:34;100262.41;;;6.71;100.00
33554;BME280;19885;42.208;24.952;2022-12-01T10:37:01;100254.19;;;6.54;100.00
33554;BME280;19885;42.208;24.952;2022-12-01T10:39:40;100245.91;;;6.67;100.00
33554;BME280;19885;42.208;24.952;2022-12-01T10:42:13;100242.22;;;6.59;100.00
33554;BME280;19885;42.208;24.952;2022-12-01T10:44:41;100250.09;;;6.62;100.00
33554;BME280;19885;42.208;24.952;2022-12-01T10:47:18;100247.34;;;6.56;100.00
33554;BME280;19885;42.208;24.952;2022-12-01T10:49:44;100250.31;;;6.70;100.00
33554;BME280;19885;42.208;24.952;2022-12-01T10:54:57;100191.44;;;6.33;100.00
33554;BME280;19885;42.208;24.952;2022-12-01T10:57:27;100226.56;;;6.55;100.00
33554;BME280;19885;42.208;24.952;2022-12-01T11:00:02;100233.66;;;6.62;100.00
33554;BME280;19885;42.208;24.952;2022-12-01T11:02:29;100244.16;;;6.66;100.00
33554;BME280;19885;42.208;24.952;2022-12-01T11:05:03;100237.22;;;6.65;100.00
33554;BME280;19885;42.208;24.952;2022-12-01T11:07:42;100219.44;;;6.47;100.00
33554;BME280;19885;42.208;24.952;2022-12-01T11:10:32;100229.63;;;6.71;100.00
33554;BME280;19885;42.208;24.952;2022-12-01T11:13:05;100236.75;;;6.80;100.00
33554;BME280;19885;42.208;24.952;2022-12-01T11:15:52;100229.78;;;6.77;100.00
33554;BME280;19885;42.208;24.952;2022-12-01T11:23:53;100224.13;;;6.90;100.00
33554;BME280;19885;42.208;24.952;2022-12-01T11:26:26;100217.28;;;6.92;100.00
33554;BME280;19885;42.208;24.952;2022-12-01T11:28:56;100195.53;;;6.87;100.00
33554;BME280;19885;42.208;24.952;2022-12-01T11:31:36;100213.56;;;6.84;100.00
33554;BME280;19885;42.208;24.952;2022-12-01T11:34:03;100188.97;;;6.67;100.00
33554;BME280;19885;42.208;24.952;2022-12-01T11:36:43;100208.59;;;6.90;100.00
33554;BME280;19885;42.208;24.952;2022-12-01T11:42:01;100209.41;;;6.89;100.00
33554;BME280;19885;42.208;24.952;2022-12-01T11:44:29;100213.75;;;6.90;100.00
33554;BME280;19885;42.208;24.952;2022-12-01T11:46:55;100208.41;;;6.84;100.00
33554;BME280;19885;42.208;24.952;2022-12-01T11:49:26;100209.41;;;6.89;100.00
33554;BME280;19885;42.208;24.952;2022-12-01T11:51:55;100218.88;;;6.89;100.00
33554;BME280;19885;42.208;24.952;2022-12-01T11:54:27;100210.47;;;6.97;100.00
33554;BME280;19885;42.208;24.952;2022-12-01T11:56:53;100210.22;;;6.88;100.00
33554;BME280;19885;42.208;24.952;2022-12-01T11:59:26;100174.22;;;6.65;100.00
33554;BME280;19885;42.208;24.952;2022-12-01T12:07:48;100214.47;;;6.85;100.00
33554;BME280;19885;42.208;24.952;2022-12-01T12:15:57;100224.56;;;6.76;100.00
33554;BME280;19885;42.208;24.952;2022-12-01T12:18:38;100214.47;;;6.85;100.00
33554;BME280;19885;42.208;24.952;2022-12-01T12:21:37;100213.56;;;6.84;100.00
33554;BME280;19885;42.208;24.952;2022-12-01T12:30:23;100208.63;;;6.61;100.00
33554;BME280;19885;42.208;24.952;2022-12-01T12:52:54;100212.81;;;6.57;100.00
33554;BME280;19885;42.208;24.952;2022-12-01T12:55:29;100209.56;;;6.64;100.00
33554;BME280;19885;42.208;24.952;2022-12-01T12:58:01;100210.44;;;6.63;100.00
33554;BME280;19885;42.208;24.952;2022-12-01T13:00:29;100206.81;;;6.58;100.00
33554;BME280;19885;42.208;24.952;2022-12-01T13:03:16;100198.28;;;6.61;100.00
33554;BME280;19885;42.208;24.952;2022-12-01T13:05:58;100194.38;;;6.76;100.00
33554;BME280;19885;42.208;24.952;2022-12-01T13:09:04;100200.38;;;6.75;100.00
33554;BME280;19885;42.208;24.952;2022-12-01T13:11:37;100123.38;;;6.35;100.00
33554;BME280;19885;42.208;24.952;2022-12-01T13:14:17;100204.06;;;6.83;100.00
33554;BME280;19885;42.208;24.952;2022-12-01T13:16:46;100197.88;;;6.78;100.00
33554;BME280;19885;42.208;24.952;2022-12-01T13:19:32;100199.81;;;6.85;100.00
33554;BME280;19885;42.208;24.952;2022-12-01T13:22:00;100207.25;;;6.75;100.00
33554;BME280;19885;42.208;24.952;2022-12-01T13:24:28;100190.38;;;6.56;100.00
33554;BME280;19885;42.208;24.952;2022-12-01T13:27:25;100207.84;;;6.63;100.00
33554;BME280;19885;42.208;24.952;2022-12-01T13:29:54;100114.97;;;6.13;100.00
33554;BME280;19885;42.208;24.952;2022-12-01T13:34:54;100198.41;;;6.65;100.00
33554;BME280;19885;42.208;24.952;2022-12-01T13:37:34;100186.63;;;6.78;100.00
33554;BME280;19885;42.208;24.952;2022-12-01T13:40:15;100190.16;;;6.80;100.00
33554;BME280;19885;42.208;24.952;2022-12-01T13:43:19;100202.78;;;7.00;100.00
33554;BME280;19885;42.208;24.952;2022-12-01T13:45:47;100201.78;;;6.95;100.00
33554;BME280;19885;42.208;24.952;2022-12-01T13:51:10;100176.50;;;6.85;100.00
33554;BME280;19885;42.208;24.952;2022-12-01T13:53:37;100177.31;;;6.84;100.00
33554;BME280;19885;42.208;24.952;2022-12-01T14:03:52;100188.31;;;6.76;100.00
33554;BME280;19885;42.208;24.952;2022-12-01T14:09:27;100212.38;;;6.72;100.00
33554;BME280;19885;42.208;24.952;2022-12-01T14:14:34;100197.50;;;6.65;100.00
33554;BME280;19885;42.208;24.952;2022-12-01T14:17:02;100208.88;;;6.70;100.00
33554;BME280;19885;42.208;24.952;2022-12-01T14:19:49;100210.72;;;6.74;100.00
33554;BME280;19885;42.208;24.952;2022-12-01T14:25:00;100210.50;;;6.66;100.00
33554;BME280;19885;42.208;24.952;2022-12-01T14:27:43;100204.81;;;6.79;100.00
33554;BME280;19885;42.208;24.952;2022-12-01T14:36:48;100222.78;;;6.43;100.00
33554;BME280;19885;42.208;24.952;2022-12-01T14:39:37;100209.66;;;6.36;100.00
33554;BME280;19885;42.208;24.952;2022-12-01T14:45:03;100226.00;;;6.35;100.00
33554;BME280;19885;42.208;24.952;2022-12-01T14:48:03;100223.69;;;6.45;100.00
33554;BME280;19885;42.208;24.952;2022-12-01T14:50:40;100223.13;;;6.26;100.00
33554;BME280;19885;42.208;24.952;2022-12-01T14:55:42;100226.09;;;6.38;100.00
33554;BME280;19885;42.208;24.952;2022-12-01T14:58:21;100217.16;;;6.27;100.00
33554;BME280;19885;42.208;24.952;2022-12-01T15:03:23;100218.59;;;6.47;100.00
33554;BME280;19885;42.208;24.952;2022-12-01T15:05:48;100219.31;;;6.43;100.00
33554;BME280;19885;42.208;24.952;2022-12-01T15:08:21;100226.25;;;6.44;100.00
33554;BME280;19885;42.208;24.952;2022-12-01T15:10:53;100235.94;;;6.50;100.00
33554;BME280;19885;42.208;24.952;2022-12-01T15:13:25;100219.50;;;6.49;100.00
33554;BME280;19885;42.208;24.952;2022-12-01T15:15:55;100240.13;;;6.46;100.00
33554;BME280;19885;42.208;24.952;2022-12-01T15:18:32;100236.06;;;6.54;100.00
33554;BME280;19885;42.208;24.952;2022-12-01T15:26:23;100239.81;;;6.65;100.00
33554;BME280;19885;42.208;24.952;2022-12-01T15:28:49;100246.84;;;6.69;100.00
33554;BME280;19885;42.208;24.952;2022-12-01T15:31:15;100243.19;;;6.63;100.00
33554;BME280;19885;42.208;24.952;2022-12-01T15:33:49;100245.00;;;6.65;100.00
33554;BME280;19885;42.208;24.952;2022-12-01T15:36:15;100248.44;;;6.66;100.00
33554;BME280;19885;42.208;24.952;2022-12-01T15:38:43;100240.22;;;6.80;100.00
33554;BME280;19885;42.208;24.952;2022-12-01T15:41:18;100251.09;;;6.67;100.00
33554;BME280;19885;42.208;24.952;2022-12-01T15:43:56;100249.16;;;6.60;100.00
33554;BME280;19885;42.208;24.952;2022-12-01T15:46:30;100249.53;;;6.42;100.00
33554;BME280;19885;42.208;24.952;2022-12-01T15:51:40;100252.75;;;6.35;100.00
33554;BME280;19885;42.208;24.952;2022-12-01T15:54:18;100250.25;;;6.38;100.00